createdAt,value
2022-08-22T00:02:33.400Z,15.07
2022-08-22T00:03:06.552Z,14.23
2022-08-22T00:03:07.363Z,12.77
2022-08-22T00:05:23.005Z,12.10
2022-08-22T00:07:56.232Z,15.57
2022-08-22T00:10:35.419Z,14.18
2022-08-22T00:13:05.508Z,13.13
2022-08-22T00:15:43.221Z,12.15
2022-08-22T00:18:13.032Z,12.80
2022-08-22T00:20:57.898Z,13.00
2022-08-22T00:23:30.111Z,15.70
2022-08-22T00:26:02.837Z,14.40
2022-08-22T00:28:31.554Z,11.05
2022-08-22T00:31:02.664Z,11.45
2022-08-22T00:33:34.075Z,15.48
2022-08-22T00:36:03.927Z,11.68
2022-08-22T00:38:40.809Z,10.50
2022-08-22T00:41:10.190Z,14.70
2022-08-22T00:43:55.075Z,10.82
2022-08-22T00:46:40.334Z,18.85
2022-08-22T00:49:24.410Z,10.90
2022-08-22T00:52:14.408Z,10.00
2022-08-22T00:54:51.219Z,10.60
2022-08-22T00:57:36.440Z,13.98
2022-08-22T01:00:10.948Z,8.98
2022-08-22T01:02:40.813Z,10.40
2022-08-22T01:05:27.842Z,10.77
2022-08-22T01:08:02.848Z,15.43
2022-08-22T01:10:50.073Z,10.52
2022-08-22T01:13:20.370Z,12.65
2022-08-22T01:15:47.879Z,11.77
2022-08-22T01:18:14.115Z,7.50
2022-08-22T01:21:06.468Z,9.98
2022-08-22T01:23:51.627Z,8.40
2022-08-22T01:26:20.937Z,9.93
2022-08-22T01:29:06.082Z,10.60
2022-08-22T01:31:54.759Z,10.00
2022-08-22T01:34:20.982Z,19.25
2022-08-22T01:36:59.776Z,16.80
2022-08-22T01:39:41.871Z,10.88
2022-08-22T01:42:26.660Z,8.77
2022-08-22T01:45:00.639Z,9.32
2022-08-22T01:47:31.481Z,9.02
2022-08-22T01:50:11.185Z,14.45
2022-08-22T01:52:37.422Z,12.00
2022-08-22T01:55:10.093Z,9.45
2022-08-22T01:57:57.296Z,8.55
2022-08-22T02:00:34.710Z,11.02
2022-08-22T02:03:27.910Z,12.45
2022-08-22T02:06:26.692Z,7.57
2022-08-22T02:09:02.636Z,12.18
2022-08-22T02:11:31.981Z,11.23
2022-08-22T02:14:14.011Z,10.32
2022-08-22T02:16:42.398Z,9.52
2022-08-22T02:19:20.927Z,9.25
2022-08-22T02:21:56.411Z,18.20
2022-08-22T02:24:43.379Z,14.35
2022-08-22T02:27:31.444Z,7.75
2022-08-22T02:30:04.130Z,9.18
2022-08-22T02:32:37.141Z,12.38
2022-08-22T02:35:03.633Z,10.68
2022-08-22T02:37:55.250Z,14.52
2022-08-22T02:40:30.624Z,10.50
2022-08-22T02:43:09.526Z,11.70
2022-08-22T02:45:47.969Z,8.90
2022-08-22T02:48:27.779Z,16.33
2022-08-22T02:51:10.556Z,11.83
2022-08-22T02:53:49.778Z,8.90
2022-08-22T02:56:22.289Z,15.30
2022-08-22T02:58:53.544Z,9.95
2022-08-22T03:01:33.408Z,10.13
2022-08-22T03:04:18.305Z,12.43
2022-08-22T03:06:46.329Z,12.25
2022-08-22T03:09:15.336Z,12.75
2022-08-22T03:12:05.289Z,12.27
2022-08-22T03:14:44.384Z,9.80
2022-08-22T03:17:16.143Z,12.43
2022-08-22T03:20:01.352Z,12.35
2022-08-22T03:22:41.454Z,10.98
2022-08-22T03:25:28.067Z,16.05
2022-08-22T03:28:01.916Z,8.63
2022-08-22T03:30:42.184Z,9.23
2022-08-22T03:33:25.750Z,19.40
2022-08-22T03:35:57.935Z,10.13
2022-08-22T03:38:26.967Z,9.15
2022-08-22T03:41:03.244Z,14.73
2022-08-22T03:43:43.609Z,13.43
2022-08-22T03:46:21.472Z,13.65
2022-08-22T03:48:59.921Z,10.25
2022-08-22T03:51:38.406Z,14.23
2022-08-22T03:54:11.416Z,10.10
2022-08-22T03:56:49.958Z,10.48
2022-08-22T03:59:42.469Z,12.70
2022-08-22T04:02:24.983Z,10.63
2022-08-22T04:07:50.217Z,9.55
2022-08-22T04:10:29.749Z,9.75
2022-08-22T04:12:56.009Z,13.65
2022-08-22T04:15:25.376Z,14.05
2022-08-22T04:17:51.690Z,13.02
2022-08-22T04:20:37.655Z,15.23
2022-08-22T04:23:22.486Z,10.65
2022-08-22T04:25:53.462Z,13.25
2022-08-22T04:28:22.835Z,12.43
2022-08-22T04:30:49.057Z,10.50
2022-08-22T04:33:18.952Z,12.07
2022-08-22T04:35:52.138Z,17.50
2022-08-22T04:38:33.770Z,13.65
2022-08-22T04:41:04.745Z,15.73
2022-08-22T04:43:36.180Z,13.23
2022-08-22T04:46:08.254Z,13.63
2022-08-22T04:48:37.538Z,15.13
2022-08-22T04:51:08.519Z,10.98
2022-08-22T04:53:43.916Z,10.15
2022-08-22T04:56:29.064Z,16.98
2022-08-22T04:59:00.367Z,15.25
2022-08-22T05:01:47.033Z,10.95
2022-08-22T05:04:22.023Z,14.15
2022-08-22T05:06:50.456Z,23.27
2022-08-22T05:09:18.727Z,16.85
2022-08-22T05:11:46.910Z,16.55
2022-08-22T05:14:24.579Z,18.23
2022-08-22T05:16:52.864Z,15.00
2022-08-22T05:19:32.133Z,13.15
2022-08-22T05:21:58.934Z,32.55
2022-08-22T05:24:39.575Z,12.55
2022-08-22T05:29:32.564Z,14.18
2022-08-22T05:32:02.071Z,14.50
2022-08-22T05:34:31.705Z,15.63
2022-08-22T05:37:16.001Z,9.00
2022-08-22T05:39:46.973Z,11.32
2022-08-22T05:42:25.572Z,21.08
2022-08-22T05:44:51.883Z,20.98
2022-08-22T05:47:22.497Z,22.35
2022-08-22T05:52:27.291Z,13.68
2022-08-22T05:55:02.183Z,10.57
2022-08-22T05:57:30.131Z,14.80
2022-08-22T06:00:02.834Z,12.95
2022-08-22T06:02:38.927Z,11.57
2022-08-22T06:05:11.723Z,17.33
2022-08-22T06:07:46.369Z,18.38
2022-08-22T06:10:21.820Z,14.63
2022-08-22T06:12:58.129Z,15.82
2022-08-22T06:15:30.352Z,17.27
2022-08-22T06:18:05.332Z,16.17
2022-08-22T06:20:39.439Z,17.02
2022-08-22T06:23:07.322Z,11.43
2022-08-22T06:25:35.445Z,15.00
2022-08-22T06:28:04.590Z,12.50
2022-08-22T06:30:31.605Z,17.42
2022-08-22T06:33:01.199Z,16.08
2022-08-22T06:35:29.759Z,13.48
2022-08-22T06:37:59.457Z,25.45
2022-08-22T06:40:27.611Z,18.07
2022-08-22T06:42:54.479Z,15.65
2022-08-22T06:45:27.518Z,15.18
2022-08-22T06:48:00.578Z,16.80
2022-08-22T06:50:34.861Z,15.05
2022-08-22T06:53:05.542Z,10.93
2022-08-22T06:55:32.098Z,10.80
2022-08-22T06:58:18.340Z,19.25
2022-08-22T07:00:48.618Z,12.02
2022-08-22T07:03:28.034Z,14.77
2022-08-22T07:05:55.619Z,11.15
2022-08-22T07:08:22.744Z,14.52
2022-08-22T07:10:55.800Z,15.48
2022-08-22T07:13:24.106Z,10.90
2022-08-22T07:15:59.735Z,15.40
2022-08-22T07:18:27.546Z,20.25
2022-08-22T07:20:56.967Z,15.00
2022-08-22T07:23:31.541Z,14.30
2022-08-22T07:26:16.676Z,16.23
2022-08-22T07:28:50.819Z,15.05
2022-08-22T07:31:26.465Z,19.17
2022-08-22T07:34:01.061Z,13.82
2022-08-22T07:36:47.390Z,12.52
2022-08-22T07:39:25.472Z,10.82
2022-08-22T07:41:54.735Z,18.63
2022-08-22T07:44:23.456Z,17.13
2022-08-22T07:46:52.519Z,11.32
2022-08-22T07:49:24.177Z,12.30
2022-08-22T07:51:50.608Z,13.82
2022-08-22T07:54:22.424Z,15.93
2022-08-22T07:56:57.603Z,9.25
2022-08-22T07:59:24.307Z,16.58
2022-08-22T08:01:52.995Z,15.45
2022-08-22T08:04:21.654Z,16.35
2022-08-22T08:06:48.691Z,10.63
2022-08-22T08:09:15.548Z,13.48
2022-08-22T08:11:43.463Z,16.73
2022-08-22T08:14:13.767Z,14.02
2022-08-22T08:19:06.858Z,15.52
2022-08-22T08:21:37.931Z,10.85
2022-08-22T08:24:05.862Z,15.48
2022-08-22T08:26:34.171Z,12.73
2022-08-22T08:29:01.717Z,12.90
2022-08-22T08:31:32.298Z,13.57
2022-08-22T08:34:03.152Z,13.27
2022-08-22T08:36:36.650Z,15.88
2022-08-22T08:39:21.057Z,15.05
2022-08-22T08:41:47.293Z,10.65
2022-08-22T08:44:30.531Z,17.42
2022-08-22T08:47:22.882Z,16.42
2022-08-22T08:49:51.866Z,14.77
2022-08-22T08:52:27.399Z,14.13
2022-08-22T08:55:00.109Z,14.05
2022-08-22T08:57:27.565Z,14.05
2022-08-22T08:59:58.248Z,16.58
2022-08-22T09:02:44.322Z,11.98
2022-08-22T09:05:11.371Z,32.45
2022-08-22T09:07:52.708Z,14.85
2022-08-22T09:10:31.447Z,16.27
2022-08-22T09:13:21.247Z,14.23
2022-08-22T09:18:27.701Z,11.90
2022-08-22T09:21:30.644Z,13.90
2022-08-22T09:24:16.128Z,11.45
2022-08-22T09:26:48.062Z,15.38
2022-08-22T09:29:32.820Z,10.48
2022-08-22T09:32:02.634Z,15.95
2022-08-22T09:34:33.505Z,20.67
2022-08-22T09:37:00.841Z,14.90
2022-08-22T09:39:36.177Z,12.60
2022-08-22T09:42:08.089Z,12.85
2022-08-22T09:44:53.619Z,9.57
2022-08-22T09:47:26.507Z,15.93
2022-08-22T09:50:19.793Z,15.25
2022-08-22T09:52:46.010Z,10.57
2022-08-22T09:55:16.220Z,12.10
2022-08-22T09:57:56.860Z,13.32
2022-08-22T10:00:26.577Z,9.93
2022-08-22T10:03:11.844Z,13.95
2022-08-22T10:06:09.225Z,12.73
2022-08-22T10:08:42.252Z,11.73
2022-08-22T10:11:12.449Z,14.65
2022-08-22T10:14:01.260Z,14.13
2022-08-22T10:16:46.484Z,8.80
2022-08-22T10:19:28.538Z,14.57
2022-08-22T10:22:15.926Z,9.38
2022-08-22T10:24:57.247Z,10.70
2022-08-22T10:27:36.861Z,13.68
2022-08-22T10:30:20.180Z,10.23
2022-08-22T10:32:46.916Z,12.30
2022-08-22T10:35:28.380Z,17.88
2022-08-22T10:38:06.291Z,9.60
2022-08-22T10:40:39.618Z,11.13
2022-08-22T10:43:29.198Z,13.75
2022-08-22T10:46:02.483Z,13.90
2022-08-22T10:48:33.850Z,7.95
2022-08-22T10:51:09.914Z,11.27
2022-08-22T10:53:50.375Z,8.85
2022-08-22T10:56:21.843Z,10.27
2022-08-22T10:58:58.002Z,9.93
2022-08-22T11:01:37.553Z,18.95
2022-08-22T11:04:12.930Z,8.15
2022-08-22T11:06:46.651Z,8.77
2022-08-22T11:09:25.920Z,8.98
2022-08-22T11:12:02.962Z,10.38
2022-08-22T11:14:44.728Z,15.98
2022-08-22T11:17:27.943Z,7.47
2022-08-22T11:20:08.103Z,11.48
2022-08-22T11:22:50.824Z,9.75
2022-08-22T11:25:29.207Z,10.68
2022-08-22T11:28:28.867Z,9.20
2022-08-22T11:31:03.720Z,7.00
2022-08-22T11:33:46.553Z,7.03
2022-08-22T11:36:27.462Z,7.18
2022-08-22T11:39:09.962Z,8.13
2022-08-22T11:41:53.336Z,5.28
2022-08-22T11:44:23.479Z,5.00
2022-08-22T11:46:55.306Z,8.20
2022-08-22T11:49:32.891Z,10.20
2022-08-22T11:52:02.065Z,4.88
2022-08-22T11:54:47.257Z,4.97
2022-08-22T11:57:21.217Z,9.00
2022-08-22T11:59:53.412Z,7.03
2022-08-22T12:02:38.523Z,10.15
2022-08-22T12:05:34.008Z,8.80
2022-08-22T12:08:11.476Z,8.82
2022-08-22T12:10:46.863Z,8.27
2022-08-22T12:13:16.850Z,8.88
2022-08-22T12:15:44.359Z,8.88
2022-08-22T12:18:36.125Z,5.32
2022-08-22T12:21:21.579Z,8.73
2022-08-22T12:23:59.524Z,5.72
2022-08-22T12:26:50.956Z,10.75
2022-08-22T12:29:28.557Z,9.70
2022-08-22T12:32:34.148Z,7.10
2022-08-22T12:35:13.823Z,8.75
2022-08-22T12:37:59.576Z,9.70
2022-08-22T12:40:32.479Z,6.38
2022-08-22T12:43:02.690Z,10.30
2022-08-22T12:45:34.747Z,7.53
2022-08-22T12:48:19.643Z,11.23
2022-08-22T12:50:49.344Z,4.78
2022-08-22T12:53:24.536Z,7.93
2022-08-22T12:56:10.298Z,6.18
2022-08-22T12:58:50.445Z,13.38
2022-08-22T13:01:18.272Z,9.15
2022-08-22T13:03:48.616Z,11.63
2022-08-22T13:06:33.286Z,6.30
2022-08-22T13:09:00.111Z,4.30
2022-08-22T13:11:27.574Z,7.10
2022-08-22T13:13:57.261Z,8.32
2022-08-22T13:16:24.807Z,6.47
2022-08-22T13:18:56.850Z,3.55
2022-08-22T13:21:26.329Z,7.78
2022-08-22T13:23:59.835Z,7.25
2022-08-22T13:26:33.417Z,7.90
2022-08-22T13:29:25.573Z,5.30
2022-08-22T13:31:55.130Z,5.68
2022-08-22T13:34:23.566Z,7.55
2022-08-22T13:36:51.881Z,3.70
2022-08-22T13:39:26.268Z,4.32
2022-08-22T13:41:55.514Z,4.15
2022-08-22T13:44:24.550Z,6.03
2022-08-22T13:47:13.106Z,8.43
2022-08-22T13:49:39.757Z,9.65
2022-08-22T13:52:29.649Z,7.28
2022-08-22T13:55:01.912Z,7.35
2022-08-22T13:57:39.266Z,4.22
2022-08-22T14:00:07.281Z,5.20
2022-08-22T14:02:53.152Z,8.35
2022-08-22T14:05:27.639Z,6.28
2022-08-22T14:08:04.797Z,5.60
2022-08-22T14:10:41.527Z,6.13
2022-08-22T14:13:11.715Z,5.65
2022-08-22T14:15:45.703Z,10.40
2022-08-22T14:18:20.016Z,3.90
2022-08-22T14:20:47.646Z,7.63
2022-08-22T14:23:18.673Z,9.38
2022-08-22T14:25:45.148Z,7.35
2022-08-22T14:28:27.499Z,6.78
2022-08-22T14:30:58.272Z,6.72
2022-08-22T14:33:43.630Z,6.32
2022-08-22T14:36:13.783Z,8.15
2022-08-22T14:38:46.136Z,5.15
2022-08-22T14:41:26.516Z,6.55
2022-08-22T14:43:59.011Z,5.82
2022-08-22T14:46:29.613Z,8.25
2022-08-22T14:48:55.858Z,6.90
2022-08-22T14:51:24.034Z,9.45
2022-08-22T14:53:50.474Z,7.20
2022-08-22T14:56:27.804Z,6.65
2022-08-22T14:58:54.061Z,7.55
2022-08-22T15:01:21.918Z,7.00
2022-08-22T15:03:52.916Z,4.50
2022-08-22T15:06:36.743Z,4.93
2022-08-22T15:09:11.345Z,5.85
2022-08-22T15:11:37.919Z,5.45
2022-08-22T15:14:13.712Z,6.28
2022-08-22T15:16:41.870Z,7.50
2022-08-22T15:19:22.801Z,7.15
2022-08-22T15:21:49.521Z,6.63
2022-08-22T15:24:16.034Z,6.65
2022-08-22T15:26:55.447Z,10.45
2022-08-22T15:29:31.003Z,7.10
2022-08-22T15:31:59.747Z,7.38
2022-08-22T15:34:35.721Z,6.10
2022-08-22T15:37:08.339Z,7.13
2022-08-22T15:39:56.837Z,6.30
2022-08-22T15:42:30.537Z,11.10
2022-08-22T15:44:57.174Z,6.38
2022-08-22T15:47:37.975Z,11.57
2022-08-22T15:50:07.793Z,8.43
2022-08-22T15:52:59.655Z,8.98
2022-08-22T15:55:31.595Z,7.53
2022-08-22T15:58:04.542Z,8.90
2022-08-22T16:03:06.527Z,11.40
2022-08-22T16:05:55.018Z,7.20
2022-08-22T16:08:21.822Z,8.75
2022-08-22T16:11:08.359Z,9.82
2022-08-22T16:13:37.978Z,7.22
2022-08-22T16:16:04.776Z,7.60
2022-08-22T16:18:34.071Z,7.93
2022-08-22T16:21:10.429Z,6.90
2022-08-22T16:23:48.570Z,6.45
2022-08-22T16:26:17.627Z,11.63
2022-08-22T16:28:59.989Z,9.02
2022-08-22T16:31:31.989Z,12.40
2022-08-22T16:34:18.366Z,6.47
2022-08-22T16:37:02.814Z,6.80
2022-08-22T16:39:35.504Z,9.38
2022-08-22T16:42:21.889Z,8.50
2022-08-22T16:44:48.119Z,11.15
2022-08-22T16:47:14.371Z,5.93
2022-08-22T16:49:54.035Z,7.20
2022-08-22T16:52:20.265Z,6.68
2022-08-22T16:54:47.619Z,5.40
2022-08-22T16:57:16.935Z,5.75
2022-08-22T17:00:04.583Z,8.15
2022-08-22T17:02:49.728Z,12.55
2022-08-22T17:05:34.204Z,6.75
2022-08-22T17:08:19.356Z,5.85
2022-08-22T17:10:59.146Z,5.25
2022-08-22T17:13:28.404Z,6.88
2022-08-22T17:16:25.122Z,7.13
2022-08-22T17:19:27.079Z,6.82
2022-08-22T17:21:57.071Z,10.93
2022-08-22T17:24:33.549Z,8.48
2022-08-22T17:27:19.306Z,6.80
2022-08-22T17:29:48.793Z,7.60
2022-08-22T17:32:21.344Z,5.17
2022-08-22T17:34:55.634Z,6.22
2022-08-22T17:37:23.300Z,7.47
2022-08-22T17:40:08.365Z,4.68
2022-08-22T17:42:37.367Z,5.05
2022-08-22T17:45:08.995Z,8.57
2022-08-22T17:48:14.046Z,7.68
2022-08-22T17:50:57.416Z,10.93
2022-08-22T17:53:36.064Z,31.13
2022-08-22T17:56:02.286Z,39.03
2022-08-22T17:58:37.692Z,36.28
2022-08-22T18:01:14.494Z,44.92
2022-08-22T18:03:44.850Z,52.58
2022-08-22T18:06:26.664Z,54.58
2022-08-22T18:09:14.925Z,14.18
2022-08-22T18:11:47.054Z,32.20
2022-08-22T18:14:19.197Z,22.35
2022-08-22T18:16:50.789Z,27.25
2022-08-22T18:19:55.355Z,15.68
2022-08-22T18:22:33.877Z,13.27
2022-08-22T18:25:10.677Z,14.85
2022-08-22T18:27:49.994Z,6.63
2022-08-22T18:30:21.287Z,15.70
2022-08-22T18:32:48.017Z,13.13
2022-08-22T18:35:14.985Z,14.52
2022-08-22T18:37:49.796Z,13.13
2022-08-22T18:40:26.695Z,10.52
2022-08-22T18:42:56.579Z,13.50
2022-08-22T18:45:44.220Z,20.48
2022-08-22T18:48:19.320Z,16.00
2022-08-22T18:50:46.722Z,15.57
2022-08-22T18:53:31.635Z,15.90
2022-08-22T18:56:01.143Z,9.73
2022-08-22T18:58:36.052Z,7.33
2022-08-22T19:01:23.382Z,10.80
2022-08-22T19:04:06.528Z,7.05
2022-08-22T19:06:52.124Z,8.27
2022-08-22T19:09:21.121Z,8.50
2022-08-22T19:12:06.444Z,7.53
2022-08-22T19:14:51.409Z,7.90
2022-08-22T19:17:23.539Z,11.20
2022-08-22T19:20:13.075Z,5.20
2022-08-22T19:22:39.856Z,11.03
2022-08-22T19:25:20.779Z,6.53
2022-08-22T19:28:08.519Z,7.82
2022-08-22T19:30:37.516Z,6.18
2022-08-22T19:33:09.659Z,17.30
2022-08-22T19:35:36.416Z,15.00
2022-08-22T19:38:04.652Z,8.60
2022-08-22T19:40:46.227Z,14.73
2022-08-22T19:43:27.870Z,14.07
2022-08-22T19:45:55.350Z,11.95
2022-08-22T19:48:27.235Z,9.85
2022-08-22T19:51:06.422Z,16.75
2022-08-22T19:53:38.487Z,8.98
2022-08-22T19:56:08.474Z,11.43
2022-08-22T19:58:34.717Z,12.50
2022-08-22T20:01:21.259Z,16.88
2022-08-22T20:03:56.110Z,11.07
2022-08-22T20:06:43.850Z,9.35
2022-08-22T20:09:29.564Z,14.00
2022-08-22T20:12:04.939Z,14.45
2022-08-22T20:14:35.808Z,13.02
2022-08-22T20:17:11.383Z,11.18
2022-08-22T20:19:40.578Z,15.15
2022-08-22T20:22:11.165Z,8.97
2022-08-22T20:24:40.087Z,17.27
2022-08-22T20:27:14.404Z,13.98
2022-08-22T20:29:49.297Z,11.85
2022-08-22T20:32:17.821Z,11.23
2022-08-22T20:34:44.921Z,12.30
2022-08-22T20:37:35.545Z,14.13
2022-08-22T20:40:25.854Z,16.52
2022-08-22T20:43:05.714Z,16.67
2022-08-22T20:45:40.506Z,11.02
2022-08-22T20:48:09.820Z,10.50
2022-08-22T20:50:36.135Z,17.52
2022-08-22T20:53:09.558Z,13.02
2022-08-22T20:55:36.084Z,12.43
2022-08-22T20:58:04.604Z,18.58
2022-08-22T21:00:31.533Z,8.93
2022-08-22T21:03:00.202Z,10.32
2022-08-22T21:05:32.856Z,12.40
2022-08-22T21:08:22.346Z,15.15
2022-08-22T21:11:18.645Z,10.52
2022-08-22T21:13:45.132Z,17.13
2022-08-22T21:16:15.693Z,12.77
2022-08-22T21:18:43.116Z,13.95
2022-08-22T21:21:17.566Z,8.82
2022-08-22T21:23:45.924Z,10.57
2022-08-22T21:26:19.698Z,14.27
2022-08-22T21:28:48.995Z,15.35
2022-08-22T21:31:19.220Z,11.35
2022-08-22T21:33:47.075Z,10.75
2022-08-22T21:36:15.394Z,22.05
2022-08-22T21:38:46.323Z,13.73
2022-08-22T21:41:15.187Z,12.65
2022-08-22T21:43:48.092Z,15.38
2022-08-22T21:46:23.229Z,14.10
2022-08-22T21:49:00.765Z,12.90
2022-08-22T21:51:30.665Z,11.13
2022-08-22T21:54:29.404Z,16.02
2022-08-22T21:56:57.868Z,13.85
2022-08-22T21:59:50.827Z,7.47
2022-08-22T22:02:27.864Z,15.43
2022-08-22T22:04:54.535Z,12.48
2022-08-22T22:07:22.823Z,22.88
2022-08-22T22:09:54.727Z,16.95
2022-08-22T22:12:21.751Z,20.00
2022-08-22T22:14:51.106Z,26.50
2022-08-22T22:17:18.080Z,26.23
2022-08-22T22:19:44.749Z,19.58
2022-08-22T22:22:11.137Z,22.30
2022-08-22T22:24:37.600Z,20.13
2022-08-22T22:27:04.076Z,17.33
2022-08-22T22:29:30.333Z,20.42
2022-08-22T22:31:56.605Z,21.95
2022-08-22T22:34:23.160Z,16.95
2022-08-22T22:36:49.415Z,26.27
2022-08-22T22:39:15.702Z,19.17
2022-08-22T22:41:42.286Z,22.05
2022-08-22T22:44:08.539Z,16.98
2022-08-22T22:46:34.791Z,24.98
2022-08-22T22:49:01.103Z,13.80
2022-08-22T22:51:27.555Z,15.57
2022-08-22T22:53:54.978Z,16.88
2022-08-22T22:56:22.324Z,18.88
2022-08-22T22:58:49.369Z,16.70
2022-08-22T23:01:23.275Z,21.98
2022-08-22T23:03:53.999Z,21.23
2022-08-22T23:06:21.444Z,13.48
2022-08-22T23:08:48.362Z,18.95
2022-08-22T23:11:19.490Z,17.48
2022-08-22T23:13:46.054Z,21.75
2022-08-22T23:16:13.813Z,13.13
2022-08-22T23:18:40.454Z,15.52
2022-08-22T23:21:20.429Z,19.30
2022-08-22T23:23:46.947Z,16.75
2022-08-22T23:26:13.671Z,15.57
2022-08-22T23:28:40.116Z,14.40
2022-08-22T23:31:13.851Z,13.68
2022-08-22T23:33:40.181Z,12.98
2022-08-22T23:36:10.951Z,14.48
2022-08-22T23:38:37.390Z,20.13
2022-08-22T23:41:09.585Z,20.15
2022-08-22T23:43:36.416Z,18.45
2022-08-22T23:46:02.700Z,18.65
2022-08-22T23:48:28.977Z,12.77
2022-08-22T23:50:55.215Z,13.00
2022-08-22T23:53:21.484Z,14.93
2022-08-22T23:55:47.738Z,15.98
2022-08-22T23:58:15.892Z,18.90
